Time;durP1;ratioP1;P1;durP2;ratioP2;P2;SDS_P1;SDS_P2;PMS_P1;PMS_P2;Temp;Humidity;BMP_temperature;BMP_pressure;BME280_temperature;BME280_humidity;BME280_pressure;Samples;Min_cycle;Max_cycle;Signal;HPM_P1;HPM_P2
2023/07/25 00:00:49;;;;;;;15.83;10.27;;;;;;;24.59;58.85;96750.16;5087345;28;20633;-75
2023/07/25 00:03:16;;;;;;;14.00;9.90;;;;;;;24.59;58.17;96734.25;5070582;28;20189;-80
2023/07/25 00:05:43;;;;;;;14.97;9.33;;;;;;;24.54;58.10;96752.47;5087022;28;20187;-80
2023/07/25 00:08:10;;;;;;;13.13;9.53;;;;;;;24.14;58.71;96709.03;5088330;28;20194;-71
2023/07/25 00:10:37;;;;;;;14.53;10.53;;;;;;;24.07;60.06;96726.53;5068939;28;20733;-81
2023/07/25 00:13:05;;;;;;;13.33;9.27;;;;;;;24.27;59.72;96756.22;5088225;28;20201;-83
2023/07/25 00:15:33;;;;;;;15.73;10.40;;;;;;;24.35;59.56;96742.16;5087619;28;20196;-76
2023/07/25 00:18:00;;;;;;;16.50;12.00;;;;;;;24.30;60.14;96747.13;5069409;28;20220;-81
2023/07/25 00:20:27;;;;;;;17.17;11.93;;;;;;;24.15;61.44;96729.19;5089353;28;20224;-75
2023/07/25 00:22:54;;;;;;;19.77;13.30;;;;;;;24.22;61.19;96764.63;5089519;28;20198;-75
2023/07/25 00:25:21;;;;;;;32.60;14.90;;;;;;;24.45;59.90;96764.03;5089210;28;20210;-75
2023/07/25 00:27:48;;;;;;;29.27;17.23;;;;;;;24.39;59.47;96736.38;5086999;28;20252;-71
2023/07/25 00:30:16;;;;;;;22.63;12.23;;;;;;;24.55;59.84;96746.16;5089963;28;20598;-73
2023/07/25 00:32:43;;;;;;;32.97;18.17;;;;;;;24.29;61.05;96754.25;5069065;28;20207;-80
2023/07/25 00:35:10;;;;;;;39.43;18.60;;;;;;;24.29;61.25;96756.88;5052137;28;20626;-76
2023/07/25 00:37:37;;;;;;;31.90;18.20;;;;;;;24.27;61.24;96764.16;5070093;28;20221;-70
2023/07/25 00:40:05;;;;;;;32.80;17.23;;;;;;;24.01;62.17;96750.97;5051076;28;20303;-72
2023/07/25 00:42:32;;;;;;;33.03;18.00;;;;;;;24.15;62.02;96750.38;5051906;28;20669;-70
2023/07/25 00:45:00;;;;;;;42.03;33.17;;;;;;;24.11;62.50;96754.34;5068517;28;20676;-74
2023/07/25 00:47:29;;;;;;;17.40;12.23;;;;;;;23.86;61.44;96751.75;5087267;28;20182;-70
2023/07/25 00:49:56;;;;;;;32.97;15.37;;;;;;;23.43;62.49;96740.25;5086447;28;20192;-75
2023/07/25 00:52:22;;;;;;;161.87;151.97;;;;;;;22.69;64.78;96725.81;5069079;28;20192;-70
2023/07/25 00:54:50;;;;;;;19.53;12.47;;;;;;;22.25;66.69;96737.25;5087622;28;20327;-73
2023/07/25 00:57:19;;;;;;;19.47;12.27;;;;;;;22.21;67.22;96734.09;5067910;28;20205;-73
2023/07/25 00:59:48;;;;;;;20.07;12.90;;;;;;;22.30;68.15;96749.03;5069105;28;20769;-75
2023/07/25 01:02:16;;;;;;;20.23;13.20;;;;;;;22.14;69.00;96734.81;5068254;28;20206;-71
2023/07/25 01:04:43;;;;;;;18.37;12.17;;;;;;;22.10;69.04;96736.94;5057737;28;20191;-71
2023/07/25 01:07:15;;;;;;;19.50;13.03;;;;;;;22.04;68.95;96731.41;5072350;28;20199;-74
2023/07/25 01:09:44;;;;;;;19.20;13.20;;;;;;;21.96;68.92;96742.72;5072331;28;20704;-74
2023/07/25 01:12:12;;;;;;;22.63;13.20;;;;;;;21.69;70.19;96750.59;5072976;28;20670;-70
2023/07/25 01:14:40;;;;;;;18.53;12.60;;;;;;;21.39;70.99;96721.84;5090141;28;20194;-70
2023/07/25 01:17:13;;;;;;;20.53;12.53;;;;;;;21.46;71.10;96736.09;5072864;28;20194;-70
2023/07/25 01:19:43;;;;;;;18.30;12.93;;;;;;;21.40;71.55;96731.41;5089560;28;20298;-79
2023/07/25 01:22:11;;;;;;;19.43;13.10;;;;;;;21.49;71.07;96728.75;5072720;28;20695;-71
2023/07/25 01:24:46;;;;;;;19.37;12.90;;;;;;;21.49;70.74;96698.94;5071871;28;20206;-74
2023/07/25 01:27:14;;;;;;;19.77;12.80;;;;;;;21.58;71.23;96725.22;5071564;28;20280;-76
2023/07/25 01:29:42;;;;;;;20.07;13.43;;;;;;;21.50;71.11;96732.19;5090789;28;20995;-70
2023/07/25 01:32:10;;;;;;;19.33;12.53;;;;;;;21.35;71.37;96717.84;5071358;28;20600;-75
2023/07/25 01:34:38;;;;;;;21.77;14.17;;;;;;;21.23;71.61;96724.25;5056369;28;20204;-70
2023/07/25 01:37:06;;;;;;;21.87;13.73;;;;;;;21.22;70.60;96719.97;5089647;28;20193;-76
2023/07/25 01:39:33;;;;;;;27.47;14.77;;;;;;;21.36;70.25;96736.16;5075463;28;20220;-72
2023/07/25 01:42:00;;;;;;;19.53;13.73;;;;;;;21.36;69.54;96719.50;5073811;28;20263;-77
2023/07/25 01:44:27;;;;;;;18.90;13.20;;;;;;;21.50;69.40;96732.19;5090214;28;20235;-72
2023/07/25 01:46:57;;;;;;;20.70;13.43;;;;;;;21.46;69.24;96722.94;5055544;28;20244;-72
2023/07/25 01:49:24;;;;;;;19.93;14.30;;;;;;;21.45;68.95;96730.00;5089145;28;20193;-76
2023/07/25 01:51:51;;;;;;;21.83;13.87;;;;;;;21.37;68.90;96710.63;5072566;28;20189;-80
2023/07/25 01:54:18;;;;;;;25.57;14.10;;;;;;;21.52;68.35;96730.25;5071409;28;20190;-78
2023/07/25 01:56:45;;;;;;;24.37;13.77;;;;;;;21.69;67.75;96732.13;5071919;28;20189;-80
2023/07/25 01:59:17;;;;;;;18.07;11.80;;;;;;;21.64;67.42;96713.28;5072128;28;20720;-80
2023/07/25 02:01:44;;;;;;;22.50;13.23;;;;;;;21.75;67.47;96727.09;5072123;28;20197;-86
2023/07/25 02:04:11;;;;;;;20.33;12.43;;;;;;;21.84;67.15;96742.06;5090326;28;20201;-83
2023/07/25 02:06:38;;;;;;;20.27;12.50;;;;;;;21.89;66.60;96728.44;5070958;28;20196;-83
2023/07/25 02:09:05;;;;;;;19.17;12.40;;;;;;;21.95;66.60;96741.03;5092152;28;20241;-83
2023/07/25 02:11:32;;;;;;;20.27;13.30;;;;;;;22.12;65.91;96744.69;5099479;28;20212;-82
2023/07/25 02:13:59;;;;;;;17.53;12.23;;;;;;;22.26;65.26;96742.38;5077273;28;20248;-78
2023/07/25 02:16:26;;;;;;;18.13;11.20;;;;;;;22.45;65.30;96736.13;5095071;28;20283;-69
2023/07/25 02:18:53;;;;;;;18.30;12.83;;;;;;;22.19;65.40;96741.34;5077279;28;20225;-70
2023/07/25 02:21:20;;;;;;;19.53;11.70;;;;;;;22.16;65.81;96749.53;5074176;28;20182;-79
2023/07/25 02:23:47;;;;;;;18.33;12.77;;;;;;;22.27;65.56;96733.50;5072314;28;20258;-76
2023/07/25 02:26:14;;;;;;;17.93;12.30;;;;;;;22.24;65.61;96723.22;5055771;28;20577;-80
2023/07/25 02:28:42;;;;;;;17.83;12.87;;;;;;;22.15;65.74;96723.31;5070942;28;20707;-75
2023/07/25 02:31:09;;;;;;;21.03;13.07;;;;;;;22.10;66.23;96723.75;5071994;28;20182;-77
2023/07/25 02:33:36;;;;;;;17.90;12.03;;;;;;;21.99;66.62;96723.13;5088929;28;20591;-79
2023/07/25 02:36:03;;;;;;;16.83;11.70;;;;;;;21.92;66.93;96724.69;5088869;28;20739;-81
2023/07/25 02:38:31;;;;;;;15.63;11.53;;;;;;;21.62;67.70;96725.75;5089263;28;20190;-74
2023/07/25 02:40:58;;;;;;;36.77;15.53;;;;;;;21.17;69.45;96720.38;5069886;28;20304;-74
2023/07/25 02:43:25;;;;;;;35.47;15.73;;;;;;;21.43;69.09;96728.50;5071158;28;20703;-74
2023/07/25 02:45:52;;;;;;;44.83;32.07;;;;;;;21.53;68.84;96731.94;5069665;28;20189;-80
2023/07/25 02:48:19;;;;;;;90.27;83.60;;;;;;;21.54;68.65;96725.66;5090246;28;20189;-80
2023/07/25 02:50:46;;;;;;;334.90;314.57;;;;;;;21.62;68.66;96723.97;5070329;28;20185;-81
2023/07/25 02:53:13;;;;;;;237.07;222.50;;;;;;;21.49;68.72;96706.84;5070867;28;20253;-74
2023/07/25 02:55:40;;;;;;;19.47;13.17;;;;;;;21.57;69.00;96734.13;5070823;28;20187;-79
2023/07/25 02:58:07;;;;;;;19.70;11.60;;;;;;;21.50;69.25;96734.84;5070008;28;20225;-75
2023/07/25 03:00:34;;;;;;;18.33;12.10;;;;;;;21.34;69.51;96724.09;5089579;28;20623;-75
2023/07/25 03:03:01;;;;;;;20.47;12.87;;;;;;;21.20;69.79;96735.91;5070429;28;20710;-76
2023/07/25 03:05:28;;;;;;;19.43;13.00;;;;;;;21.19;69.67;96733.41;5089280;28;20733;-74
2023/07/25 03:07:57;;;;;;;17.20;12.03;;;;;;;21.05;69.92;96726.78;5087807;28;20291;-74
2023/07/25 03:10:24;;;;;;;18.50;11.97;;;;;;;21.27;69.67;96744.91;5071046;28;20190;-73
2023/07/25 03:12:52;;;;;;;17.67;11.80;;;;;;;21.21;70.00;96739.34;5070445;28;20293;-70
2023/07/25 03:15:20;;;;;;;20.30;12.53;;;;;;;21.06;70.36;96731.91;5067531;28;20189;-74
2023/07/25 03:17:47;;;;;;;18.50;11.67;;;;;;;20.85;71.43;96736.50;5067022;28;20227;-76
2023/07/25 03:20:14;;;;;;;19.03;11.77;;;;;;;20.93;71.15;96726.09;5067033;28;20634;-78
2023/07/25 03:22:42;;;;;;;16.77;11.20;;;;;;;20.97;71.03;96727.47;5033704;28;20273;-70
2023/07/25 03:25:09;;;;;;;20.20;12.23;;;;;;;20.90;71.48;96718.47;5049551;28;20665;-73
2023/07/25 03:27:36;;;;;;;18.87;12.40;;;;;;;20.87;71.46;96726.66;5049384;28;20208;-77
2023/07/25 03:30:04;;;;;;;18.27;11.40;;;;;;;20.76;71.58;96711.00;5068260;28;20185;-70
2023/07/25 03:32:31;;;;;;;21.17;12.33;;;;;;;20.86;71.80;96727.63;5049619;28;20185;-75
2023/07/25 03:34:58;;;;;;;19.77;11.70;;;;;;;20.79;71.92;96707.28;5050695;28;20223;-76
2023/07/25 03:37:25;;;;;;;18.70;12.13;;;;;;;20.88;71.51;96728.31;5032366;28;20620;-71
2023/07/25 03:39:53;;;;;;;22.03;13.87;;;;;;;20.98;71.18;96720.38;5033660;28;20278;-81
2023/07/25 03:42:20;;;;;;;26.10;16.30;;;;;;;20.96;70.87;96707.38;5067551;28;20201;-79
2023/07/25 03:44:47;;;;;;;39.57;19.07;;;;;;;21.30;69.72;96712.16;5069478;28;20192;-75
2023/07/25 03:47:14;;;;;;;26.00;15.77;;;;;;;21.48;68.98;96723.59;5034315;28;20571;-80
2023/07/25 03:49:41;;;;;;;41.70;20.90;;;;;;;21.72;67.15;96729.22;5049238;28;20199;-85
2023/07/25 03:52:08;;;;;;;21.37;14.37;;;;;;;21.73;67.23;96730.84;5067672;28;20183;-81
2023/07/25 03:54:35;;;;;;;25.53;16.07;;;;;;;21.98;66.63;96727.56;5066139;28;20196;-86
2023/07/25 03:57:03;;;;;;;27.07;17.73;;;;;;;22.03;66.44;96717.41;5070094;28;20619;-74
2023/07/25 03:59:30;;;;;;;33.87;17.27;;;;;;;22.36;65.33;96729.94;5065384;28;20229;-73
2023/07/25 04:01:57;;;;;;;38.60;18.80;;;;;;;22.60;64.32;96730.22;5050051;28;20194;-71
2023/07/25 04:04:25;;;;;;;23.90;15.23;;;;;;;22.88;63.01;96745.94;5069911;28;20185;-78
2023/07/25 04:06:52;;;;;;;21.93;15.77;;;;;;;22.90;63.05;96746.63;5069572;28;20248;-71
2023/07/25 04:09:19;;;;;;;25.00;15.63;;;;;;;23.26;62.14;96748.22;5052595;28;20230;-80
2023/07/25 04:11:46;;;;;;;23.77;15.40;;;;;;;23.47;61.43;96742.63;5067180;28;20241;-71
2023/07/25 04:14:13;;;;;;;24.10;16.17;;;;;;;22.79;63.44;96731.88;5069230;28;20192;-76
2023/07/25 04:16:40;;;;;;;25.87;15.60;;;;;;;23.09;63.13;96736.72;5085603;28;20200;-83
2023/07/25 04:19:07;;;;;;;45.33;18.77;;;;;;;22.97;62.57;96721.28;5086698;28;20284;-81
2023/07/25 04:21:34;;;;;;;22.97;15.77;;;;;;;23.21;62.55;96745.22;5049019;28;20271;-82
2023/07/25 04:24:01;;;;;;;20.37;14.70;;;;;;;23.08;62.15;96742.16;5088028;28;20204;-78
2023/07/25 04:26:28;;;;;;;21.90;13.87;;;;;;;23.11;62.29;96733.91;5070430;28;20198;-83
2023/07/25 04:28:55;;;;;;;21.30;13.97;;;;;;;22.97;63.21;96737.13;5071589;28;20191;-72
2023/07/25 04:31:22;;;;;;;20.43;13.40;;;;;;;23.04;62.99;96738.19;5071889;28;20214;-73
2023/07/25 04:33:49;;;;;;;19.90;12.03;;;;;;;23.25;62.40;96738.63;5090664;28;20213;-84
2023/07/25 04:36:16;;;;;;;19.73;12.63;;;;;;;23.56;60.93;96737.19;5074422;28;20194;-75
2023/07/25 04:38:43;;;;;;;18.57;12.43;;;;;;;23.91;60.11;96744.13;5093160;28;20190;-75
2023/07/25 04:41:10;;;;;;;20.60;12.73;;;;;;;23.86;60.75;96727.94;5077419;28;20236;-89
2023/07/25 04:43:37;;;;;;;18.77;12.23;;;;;;;24.47;59.83;96735.56;5077987;28;20199;-88
2023/07/25 04:46:04;;;;;;;37.80;15.50;;;;;;;25.10;57.62;96743.75;5051582;28;20203;-84
2023/07/25 04:48:32;;;;;;;38.97;16.10;;;;;;;25.29;56.34;96728.31;5074416;28;20661;-85
2023/07/25 04:50:59;;;;;;;38.63;15.43;;;;;;;25.52;55.35;96752.31;5075115;28;20191;-71
2023/07/25 04:53:26;;;;;;;23.50;12.77;;;;;;;25.61;54.83;96712.38;5092839;28;20210;-76
2023/07/25 04:55:53;;;;;;;29.67;12.87;;;;;;;25.75;54.76;96740.84;5092592;28;20211;-71
2023/07/25 04:58:20;;;;;;;28.57;13.80;;;;;;;25.45;55.55;96754.81;5094340;28;20200;-74
2023/07/25 05:00:47;;;;;;;26.37;12.73;;;;;;;25.52;56.49;96741.72;5093082;28;20672;-74
2023/07/25 05:03:14;;;;;;;33.50;13.70;;;;;;;25.72;55.66;96738.50;5057376;28;20702;-84
2023/07/25 05:05:41;;;;;;;37.33;15.53;;;;;;;25.67;56.24;96735.56;5077138;28;20662;-84
2023/07/25 05:08:08;;;;;;;31.50;13.97;;;;;;;25.88;55.06;96744.78;5090720;28;20189;-74
2023/07/25 05:10:35;;;;;;;40.27;18.43;;;;;;;26.19;54.89;96748.31;5097432;28;20223;-77
2023/07/25 05:13:02;;;;;;;34.03;13.40;;;;;;;26.34;54.21;96746.56;5094482;28;20189;-82
2023/07/25 05:15:29;;;;;;;44.93;24.43;;;;;;;26.44;54.03;96742.69;5096446;28;20185;-77
2023/07/25 05:17:57;;;;;;;100.70;92.87;;;;;;;26.52;54.02;96734.66;5076445;28;20693;-71
2023/07/25 05:20:24;;;;;;;697.57;649.50;;;;;;;26.36;54.18;96734.75;5074448;28;20216;-81
2023/07/25 05:22:51;;;;;;;65.07;60.33;;;;;;;25.88;55.34;96719.06;5088718;28;20672;-82
2023/07/25 05:25:18;;;;;;;378.50;351.80;;;;;;;26.21;54.86;96733.03;5068792;28;20181;-77
2023/07/25 05:27:46;;;;;;;134.13;125.30;;;;;;;26.46;54.68;96734.56;5067020;28;20234;-75
2023/07/25 05:30:13;;;;;;;85.73;79.17;;;;;;;26.44;55.14;96741.88;5086245;28;20199;-78
2023/07/25 05:32:40;;;;;;;42.67;33.07;;;;;;;26.21;55.29;96725.91;5071989;28;20200;-74
2023/07/25 05:35:07;;;;;;;37.43;21.97;;;;;;;26.38;54.60;96729.25;5071688;28;20547;-76
2023/07/25 05:37:39;;;;;;;175.87;163.63;;;;;;;26.30;55.45;96742.59;5089876;28;20685;-77
2023/07/25 05:40:06;;;;;;;22.20;13.10;;;;;;;26.59;55.45;96734.78;5090456;28;20262;-76
2023/07/25 05:42:33;;;;;;;81.83;75.20;;;;;;;26.80;54.40;96745.63;5087185;28;20197;-85
2023/07/25 05:45:00;;;;;;;149.17;140.20;;;;;;;26.70;54.13;96726.41;5079938;28;20185;-74
2023/07/25 05:47:29;;;;;;;127.60;118.87;;;;;;;26.83;53.58;96721.34;5069036;28;20197;-83
2023/07/25 05:49:57;;;;;;;60.27;53.73;;;;;;;27.11;54.02;96743.72;5088727;28;20244;-72
2023/07/25 05:52:24;;;;;;;75.53;67.67;;;;;;;27.46;52.37;96730.78;5070743;28;20192;-75
2023/07/25 05:54:52;;;;;;;94.60;87.17;;;;;;;27.42;52.45;96735.66;5071723;28;20184;-72
2023/07/25 05:57:21;;;;;;;43.13;29.47;;;;;;;26.91;52.98;96729.28;5071150;28;20693;-74
2023/07/25 05:59:48;;;;;;;233.80;218.90;;;;;;;26.85;53.54;96727.34;5068024;28;20289;-72
2023/07/25 06:02:16;;;;;;;217.37;202.87;;;;;;;27.09;53.61;96726.28;5090436;28;20181;-74
2023/07/25 06:04:46;;;;;;;279.87;258.80;;;;;;;27.25;53.33;96732.28;5076072;28;20234;-72
2023/07/25 06:07:14;;;;;;;285.47;265.70;;;;;;;27.50;53.50;96716.09;5076191;28;20185;-80
2023/07/25 06:09:43;;;;;;;41.40;34.40;;;;;;;27.75;52.78;96709.50;5075056;28;20224;-73
2023/07/25 06:12:10;;;;;;;69.73;61.47;;;;;;;28.02;51.74;96732.84;5067707;28;20255;-76
2023/07/25 06:14:37;;;;;;;21.40;13.53;;;;;;;27.97;52.01;96721.91;5090085;28;20258;-74
2023/07/25 06:17:05;;;;;;;207.47;192.47;;;;;;;27.56;53.17;96700.25;5080586;28;20555;-73
2023/07/25 06:19:32;;;;;;;261.97;243.53;;;;;;;28.08;52.42;96698.31;5087481;28;20196;-74
2023/07/25 06:21:59;;;;;;;38.07;16.20;;;;;;;27.90;51.92;96699.69;5089263;28;20217;-77
2023/07/25 06:24:27;;;;;;;29.30;13.80;;;;;;;28.29;51.60;96715.34;5090583;28;20220;-84
2023/07/25 06:26:54;;;;;;;20.00;11.70;;;;;;;28.23;50.34;96710.75;5082662;28;20180;-74
2023/07/25 06:29:21;;;;;;;19.07;11.50;;;;;;;28.19;50.24;96700.47;5070876;28;20189;-75
2023/07/25 06:31:48;;;;;;;31.73;14.60;;;;;;;28.45;50.38;96702.59;5070939;28;20682;-80
2023/07/25 06:34:15;;;;;;;16.37;10.90;;;;;;;28.34;50.38;96707.63;5066168;28;20654;-79
2023/07/25 06:36:42;;;;;;;14.53;10.40;;;;;;;28.35;50.64;96709.25;5085159;28;20253;-79
2023/07/25 06:39:10;;;;;;;16.73;11.53;;;;;;;28.08;51.42;96694.81;5068317;28;20239;-84
2023/07/25 06:41:37;;;;;;;16.03;11.30;;;;;;;28.16;50.96;96694.69;5088382;28;20227;-77
2023/07/25 06:44:04;;;;;;;14.10;10.73;;;;;;;28.21;51.03;96686.97;5069023;28;20655;-80
2023/07/25 06:46:31;;;;;;;15.70;10.83;;;;;;;28.16;50.71;96689.38;5088070;28;20189;-74
2023/07/25 06:48:58;;;;;;;14.50;10.03;;;;;;;28.27;51.07;96698.72;5086816;28;20216;-80
2023/07/25 06:51:28;;;;;;;16.37;10.93;;;;;;;28.35;50.52;96694.09;5068269;28;20225;-75
2023/07/25 06:53:56;;;;;;;15.73;10.17;;;;;;;28.54;49.78;96697.97;5053482;28;20703;-77
2023/07/25 06:57:03;;;;;;;15.73;10.87;;;;;;;28.73;49.00;96697.34;5067997;28;20267;-77
2023/07/25 07:00:24;;;;;;;14.30;10.53;;;;;;;28.77;49.42;96683.47;5067539;28;20202;-72
2023/07/25 07:03:45;;;;;;;17.20;10.63;;;;;;;28.62;49.29;96649.91;5066686;28;20323;-75
2023/07/25 07:07:06;;;;;;;14.70;10.10;;;;;;;29.02;48.11;96680.41;5084620;28;20187;-79
2023/07/25 07:10:27;;;;;;;13.83;9.57;;;;;;;29.36;48.73;96691.16;5066828;28;20244;-73
2023/07/25 07:13:48;;;;;;;17.97;10.53;;;;;;;29.60;47.25;96694.19;5069908;28;20226;-69
2023/07/25 07:17:08;;;;;;;13.80;10.17;;;;;;;29.41;47.94;96686.03;5079193;28;20204;-76
2023/07/25 07:20:29;;;;;;;16.43;10.07;;;;;;;29.34;47.00;96682.50;5068232;28;20211;-74
2023/07/25 07:23:50;;;;;;;12.10;8.97;;;;;;;29.55;46.67;96683.25;5067699;28;20716;-78
2023/07/25 07:27:11;;;;;;;13.77;9.27;;;;;;;29.96;45.40;96669.13;5037703;28;20292;-80
2023/07/25 07:30:31;;;;;;;12.70;9.50;;;;;;;30.10;46.10;96657.47;5050842;28;20200;-76
2023/07/25 07:33:52;;;;;;;16.70;10.03;;;;;;;29.92;45.60;96655.34;5050498;28;20284;-70
2023/07/25 07:36:33;;;;;;;14.73;10.20;;;;;;;29.45;46.01;96647.28;5063741;28;20203;-70
2023/07/25 07:39:41;;;;;;;13.60;10.00;;;;;;;29.33;47.49;96651.50;5051120;28;20255;-74
2023/07/25 07:43:02;;;;;;;17.67;10.33;;;;;;;29.45;46.75;96657.97;5082828;28;20195;-78
2023/07/25 07:46:23;;;;;;;15.70;9.87;;;;;;;29.68;46.26;96661.97;5042783;28;20699;-76
2023/07/25 07:49:46;;;;;;;12.00;9.83;;;;;;;29.77;45.73;96653.84;5065765;28;20195;-77
2023/07/25 07:53:10;;;;;;;13.87;9.73;;;;;;;29.68;45.14;96639.78;5064810;28;20206;-70
2023/07/25 07:56:31;;;;;;;15.43;9.63;;;;;;;29.83;44.57;96642.34;5058097;28;20265;-70
2023/07/25 07:59:52;;;;;;;15.57;10.43;;;;;;;29.78;45.22;96624.25;5067152;28;20192;-70
2023/07/25 08:03:17;;;;;;;15.57;9.70;;;;;;;30.16;43.93;96638.78;5083571;28;20206;-73
2023/07/25 08:06:38;;;;;;;13.33;9.33;;;;;;;30.12;43.27;96624.19;5047002;28;20216;-73
2023/07/25 08:09:58;;;;;;;12.17;9.00;;;;;;;30.31;43.19;96642.16;5079122;28;20307;-75
2023/07/25 08:13:19;;;;;;;16.70;14.93;;;;;;;30.58;41.88;96620.78;5067718;28;20184;-75
2023/07/25 08:16:40;;;;;;;14.67;10.33;;;;;;;30.96;41.28;96629.88;5085450;28;20196;-74
2023/07/25 08:20:00;;;;;;;14.30;10.13;;;;;;;30.84;40.84;96631.50;5085145;28;20223;-74
2023/07/25 08:23:21;;;;;;;12.77;9.50;;;;;;;30.75;40.05;96627.41;5084494;28;20644;-76
2023/07/25 08:26:42;;;;;;;13.70;9.90;;;;;;;30.89;40.80;96619.16;5066789;28;20248;-72
2023/07/25 08:29:23;;;;;;;13.47;9.10;;;;;;;31.06;40.06;96593.63;5067403;28;20198;-70
2023/07/25 08:31:50;;;;;;;12.90;9.40;;;;;;;31.60;38.37;96619.28;5085392;28;20241;-74
2023/07/25 08:34:17;;;;;;;15.47;10.30;;;;;;;31.55;38.00;96614.53;5085807;28;20228;-77
2023/07/25 08:36:45;;;;;;;14.43;9.40;;;;;;;31.42;37.25;96587.84;5078695;28;20255;-77
2023/07/25 08:39:12;;;;;;;18.80;9.55;;;;;;;31.62;38.33;96588.56;5065612;28;20745;-78
2023/07/25 08:41:44;;;;;;;13.43;9.60;;;;;;;31.66;37.05;96581.75;5048559;28;20236;-81
2023/07/25 08:44:11;;;;;;;13.63;9.70;;;;;;;31.76;36.80;96579.44;5065624;28;20217;-77
2023/07/25 08:46:44;;;;;;;14.85;9.90;;;;;;;32.19;35.92;96600.28;5047829;28;20630;-75
2023/07/25 08:49:15;;;;;;;16.70;9.65;;;;;;;32.34;36.79;96598.13;5065271;28;20231;-77
2023/07/25 08:51:44;;;;;;;15.13;10.93;;;;;;;32.22;36.82;96597.16;5047939;28;20242;-71
2023/07/25 08:54:19;;;;;;;15.82;10.02;;;;;;;32.20;36.19;96583.16;5047556;28;20239;-75
2023/07/25 08:56:48;;;;;;;13.23;9.95;;;;;;;32.37;36.65;96592.34;5065056;28;21038;-73
2023/07/25 08:59:20;;;;;;;12.93;9.93;;;;;;;32.35;36.30;96571.09;5066112;28;20205;-77
2023/07/25 09:01:52;;;;;;;13.23;9.68;;;;;;;32.05;36.97;96589.63;5047592;28;20300;-76
2023/07/25 09:04:24;;;;;;;16.67;10.48;;;;;;;32.08;36.40;96586.53;5048054;28;20189;-73
2023/07/25 09:06:52;;;;;;;13.48;9.85;;;;;;;32.00;37.17;96576.06;5049801;28;20284;-81
2023/07/25 09:09:20;;;;;;;17.80;9.82;;;;;;;32.11;36.80;96585.25;5031306;28;20217;-75
2023/07/25 09:11:47;;;;;;;13.38;9.80;;;;;;;32.15;37.42;96580.31;5066149;28;20259;-74
2023/07/25 09:14:15;;;;;;;14.57;10.43;;;;;;;32.38;37.12;96573.34;5065400;28;20216;-73
2023/07/25 09:16:43;;;;;;;13.30;9.77;;;;;;;32.45;37.77;96578.66;5065838;28;20204;-75
2023/07/25 09:19:11;;;;;;;16.90;10.27;;;;;;;32.49;37.67;96561.13;5030334;28;20201;-77
2023/07/25 09:21:50;;;;;;;13.80;10.00;;;;;;;32.39;37.64;96568.81;5030673;28;20233;-76
2023/07/25 09:24:35;;;;;;;14.00;9.55;;;;;;;31.95;38.03;96535.69;5048977;28;20189;-78
2023/07/25 09:27:04;;;;;;;14.68;10.57;;;;;;;32.19;38.30;96557.41;5051369;28;20221;-72
2023/07/25 09:29:37;;;;;;;13.40;9.48;;;;;;;32.35;38.62;96562.22;5020455;28;20692;-79
2023/07/25 09:32:16;;;;;;;14.98;10.27;;;;;;;32.04;39.02;96566.56;5021729;28;20190;-74
2023/07/25 09:34:45;;;;;;;15.02;10.93;;;;;;;32.03;38.43;96559.56;5074619;28;20246;-77
2023/07/25 09:37:16;;;;;;;15.80;9.73;;;;;;;31.95;38.40;96565.16;5051828;28;20726;-72
2023/07/25 09:39:43;;;;;;;14.20;9.25;;;;;;;32.08;38.57;96565.09;5034989;28;20197;-76
2023/07/25 09:42:10;;;;;;;12.50;9.10;;;;;;;32.18;38.47;96545.84;5051798;28;20265;-74
2023/07/25 09:44:46;;;;;;;12.32;9.68;;;;;;;32.11;38.71;96557.66;5033825;28;20201;-71
2023/07/25 09:47:23;;;;;;;15.95;10.07;;;;;;;32.34;38.39;96565.94;5050965;28;20250;-79
2023/07/25 09:49:53;;;;;;;13.48;9.48;;;;;;;32.14;38.23;96549.19;5050716;28;20222;-78
2023/07/25 09:52:25;;;;;;;12.82;9.70;;;;;;;31.99;38.96;96528.03;5036436;28;20196;-73
2023/07/25 09:54:52;;;;;;;14.50;9.68;;;;;;;32.41;38.51;96547.97;5086717;28;20197;-77
2023/07/25 09:57:19;;;;;;;14.40;9.48;;;;;;;32.45;39.16;96541.13;5088523;28;20181;-74
2023/07/25 09:59:49;;;;;;;14.07;9.80;;;;;;;32.68;38.14;96536.00;5089323;28;20702;-76
2023/07/25 10:02:17;;;;;;;16.83;10.23;;;;;;;32.95;38.01;96545.47;5052951;28;20250;-75
2023/07/25 10:04:46;;;;;;;13.80;9.80;;;;;;;32.98;38.00;96531.59;5088724;28;20185;-74
2023/07/25 10:07:14;;;;;;;16.80;10.07;;;;;;;33.05;37.49;96531.53;5088389;28;20185;-75
2023/07/25 10:09:42;;;;;;;17.98;10.25;;;;;;;32.95;37.05;96515.94;5070110;28;20232;-78
2023/07/25 10:12:10;;;;;;;11.70;9.10;;;;;;;33.23;37.79;96529.69;5053929;28;20204;-73
2023/07/25 10:14:38;;;;;;;15.07;10.18;;;;;;;33.22;37.80;96530.72;5088199;28;20253;-70
2023/07/25 10:17:08;;;;;;;13.40;9.48;;;;;;;33.29;37.94;96511.84;5088941;28;20671;-77
2023/07/25 10:19:52;;;;;;;13.88;8.65;;;;;;;33.34;38.06;96512.00;5087977;28;20192;-76
2023/07/25 10:22:37;;;;;;;16.45;9.63;;;;;;;33.56;38.05;96511.34;5088778;28;20239;-73
2023/07/25 10:25:11;;;;;;;13.40;9.23;;;;;;;33.89;37.79;96524.34;5088242;28;20288;-78
2023/07/25 10:27:39;;;;;;;12.77;9.35;;;;;;;33.17;39.73;96519.84;5070009;28;20690;-76
2023/07/25 10:30:22;;;;;;;12.48;8.85;;;;;;;32.87;40.38;96502.81;5088861;28;20242;-71
2023/07/25 10:32:56;;;;;;;14.30;9.55;;;;;;;32.86;40.74;96495.78;5070209;28;20185;-73
2023/07/25 10:36:02;;;;;;;11.98;8.68;;;;;;;32.97;40.60;96503.13;5088080;28;20185;-71
2023/07/25 10:38:40;;;;;;;13.00;9.32;;;;;;;33.24;40.40;96492.94;5030546;28;20232;-74
2023/07/25 10:41:14;;;;;;;13.85;9.52;;;;;;;33.25;40.96;96489.19;5069047;28;20239;-76
2023/07/25 10:43:44;;;;;;;14.88;9.50;;;;;;;33.16;40.34;96488.66;5053946;28;20287;-78
2023/07/25 10:46:15;;;;;;;11.52;8.15;;;;;;;33.18;40.59;96489.25;5087763;28;20189;-75
2023/07/25 10:48:46;;;;;;;13.30;8.43;;;;;;;33.11;41.16;96483.16;5069899;28;20230;-72
2023/07/25 10:51:16;;;;;;;14.73;8.52;;;;;;;32.99;41.46;96463.50;5086792;28;20184;-77
2023/07/25 10:54:22;;;;;;;13.95;9.52;;;;;;;33.50;40.40;96474.66;5052286;28;20250;-75
2023/07/25 10:57:23;;;;;;;17.63;9.35;;;;;;;33.54;40.62;96467.78;4986058;28;21012;-74
2023/07/25 11:00:11;;;;;;;15.48;8.52;;;;;;;33.47;41.09;96466.19;4955794;28;20442;-75
2023/07/25 11:02:40;;;;;;;15.77;9.10;;;;;;;33.57;40.70;96453.09;5052420;28;20235;-72
2023/07/25 11:05:13;;;;;;;11.23;8.13;;;;;;;33.79;40.58;96459.56;5088607;28;20203;-72
2023/07/25 11:07:45;;;;;;;14.50;8.07;;;;;;;33.83;39.97;96465.31;5087332;28;20196;-74
2023/07/25 11:10:34;;;;;;;10.93;8.35;;;;;;;33.88;39.71;96455.50;5049468;28;20225;-77
2023/07/25 11:13:01;;;;;;;11.02;7.90;;;;;;;34.10;39.77;96439.69;5067632;28;20278;-69
2023/07/25 11:15:30;;;;;;;13.32;8.77;;;;;;;33.92;40.28;96442.44;5066878;28;20690;-75
2023/07/25 11:18:15;;;;;;;24.98;10.95;;;;;;;34.09;40.53;96432.66;5052653;28;20184;-72
2023/07/25 11:20:42;;;;;;;27.65;11.15;;;;;;;34.04;40.26;96432.56;5066775;28;20276;-76
2023/07/25 11:23:10;;;;;;;13.55;8.93;;;;;;;34.23;40.58;96429.53;5066929;28;20193;-75
2023/07/25 11:25:37;;;;;;;23.52;10.02;;;;;;;34.07;40.06;96410.56;5050635;28;20718;-73
2023/07/25 11:28:06;;;;;;;31.25;11.80;;;;;;;34.10;39.62;96435.13;5065660;28;20197;-75
2023/07/25 11:30:34;;;;;;;26.45;10.75;;;;;;;34.31;39.67;96433.75;5033035;28;20688;-71
2023/07/25 11:33:01;;;;;;;29.25;11.27;;;;;;;34.61;39.56;96439.88;5066351;28;20247;-75
2023/07/25 11:35:29;;;;;;;29.65;12.27;;;;;;;34.48;40.12;96437.38;5049471;28;20220;-80
2023/07/25 11:38:02;;;;;;;25.42;11.00;;;;;;;34.52;39.99;96430.50;5066759;28;20236;-71
2023/07/25 11:40:29;;;;;;;33.83;11.70;;;;;;;33.93;40.70;96418.00;5067480;28;20189;-80
2023/07/25 11:42:57;;;;;;;13.00;8.45;;;;;;;33.74;40.26;96411.06;5049020;28;20248;-72
2023/07/25 11:45:24;;;;;;;11.20;7.60;;;;;;;33.96;40.22;96401.44;5064748;28;20183;-76
2023/07/25 11:47:53;;;;;;;9.55;7.63;;;;;;;34.14;39.84;96395.16;5066320;28;20185;-74
2023/07/25 11:50:21;;;;;;;11.52;7.80;;;;;;;34.61;39.03;96401.38;5047927;28;20647;-75